createdAt,value
2022-11-20T00:01:27.591Z,93312.13
2022-11-20T00:03:55.662Z,93277.94
2022-11-20T00:06:23.201Z,93315.03
2022-11-20T00:08:50.682Z,93286.69
2022-11-20T00:11:19.807Z,93293.16
2022-11-20T00:13:48.281Z,93293.13
2022-11-20T00:16:16.869Z,93292.50
2022-11-20T00:18:43.635Z,93307.66
2022-11-20T00:21:15.892Z,93332.09
2022-11-20T00:23:43.017Z,93323.75
2022-11-20T00:26:15.238Z,93311.97
2022-11-20T00:28:57.106Z,93318.28
2022-11-20T00:31:24.052Z,93314.03
2022-11-20T00:33:51.211Z,93337.25
2022-11-20T00:36:22.773Z,93341.16
2022-11-20T00:38:53.501Z,93333.75
2022-11-20T00:41:20.199Z,93334.00
2022-11-20T00:43:46.883Z,93328.72
2022-11-20T00:46:21.454Z,93348.22
2022-11-20T00:48:48.183Z,93336.13
2022-11-20T00:51:20.641Z,93330.19
2022-11-20T00:53:47.454Z,93332.72
2022-11-20T00:56:16.303Z,93327.91
2022-11-20T00:58:44.753Z,93352.06
2022-11-20T01:01:13.943Z,93350.75
2022-11-20T01:03:43.858Z,93352.03
2022-11-20T01:06:16.707Z,93354.06
2022-11-20T01:08:43.778Z,93331.38
2022-11-20T01:11:13.176Z,93359.41
2022-11-20T01:13:39.966Z,93361.69
2022-11-20T01:16:12.460Z,93365.22
2022-11-20T01:18:41.524Z,93359.66
2022-11-20T01:21:14.584Z,93363.66
2022-11-20T01:23:42.860Z,93372.31
2022-11-20T01:26:12.987Z,93368.94
2022-11-20T01:28:40.688Z,93370.66
2022-11-20T01:31:35.513Z,93368.34
2022-11-20T01:34:07.867Z,93348.84
2022-11-20T01:36:36.721Z,93354.59
2022-11-20T01:39:15.203Z,93345.88
2022-11-20T01:42:04.529Z,93351.50
2022-11-20T01:45:25.930Z,93377.38
2022-11-20T01:47:52.411Z,93369.66
2022-11-20T01:50:25.547Z,93378.75
2022-11-20T01:52:57.468Z,93359.13
2022-11-20T01:55:45.946Z,93372.88
2022-11-20T01:58:13.221Z,93369.81
2022-11-20T02:00:39.954Z,93365.38
2022-11-20T02:03:17.484Z,93366.56
2022-11-20T02:05:52.843Z,93377.03
2022-11-20T02:08:20.759Z,93352.72
2022-11-20T02:10:47.239Z,93341.84
2022-11-20T02:13:32.533Z,93353.88
2022-11-20T02:15:59.056Z,93372.00
2022-11-20T02:18:25.850Z,93358.94
2022-11-20T02:20:59.335Z,93350.22
2022-11-20T02:23:31.780Z,93351.81
2022-11-20T02:26:01.922Z,93344.59
2022-11-20T02:28:28.449Z,93362.59
2022-11-20T02:30:55.885Z,93359.09
2022-11-20T02:33:22.280Z,93341.41
2022-11-20T02:35:48.781Z,93348.69
2022-11-20T02:38:16.038Z,93353.56
2022-11-20T02:40:45.515Z,93345.31
2022-11-20T02:43:12.072Z,93372.31
2022-11-20T02:45:38.554Z,93358.28
2022-11-20T02:48:07.208Z,93373.09
2022-11-20T02:50:51.107Z,93367.94
2022-11-20T02:53:17.554Z,93359.69
2022-11-20T02:55:43.996Z,93315.31
2022-11-20T02:58:10.471Z,93344.94
2022-11-20T03:00:44.008Z,93372.41
2022-11-20T03:03:10.464Z,93347.31
2022-11-20T03:05:36.846Z,93346.31
2022-11-20T03:08:03.258Z,93350.41
2022-11-20T03:10:29.676Z,93365.41
2022-11-20T03:12:56.559Z,93362.41
2022-11-20T03:15:26.158Z,93353.56
2022-11-20T03:17:56.653Z,93347.63
2022-11-20T03:20:23.429Z,93349.00
2022-11-20T03:22:49.971Z,93367.16
2022-11-20T03:25:16.382Z,93341.16
2022-11-20T03:27:42.749Z,93329.31
2022-11-20T03:30:16.406Z,93350.00
2022-11-20T03:32:42.980Z,93351.16
2022-11-20T03:35:09.982Z,93345.97
2022-11-20T03:37:43.574Z,93356.47
2022-11-20T03:40:10.483Z,93350.13
2022-11-20T03:42:45.998Z,93379.22
2022-11-20T03:45:17.747Z,93355.13
2022-11-20T03:47:45.348Z,93375.28
2022-11-20T03:50:16.213Z,93353.09
2022-11-20T03:52:42.789Z,93371.13
2022-11-20T03:55:09.473Z,93354.16
2022-11-20T03:57:35.945Z,93359.13
2022-11-20T04:00:11.288Z,93374.28
2022-11-20T04:02:37.687Z,93360.31
2022-11-20T04:05:04.388Z,93387.84
2022-11-20T04:07:30.880Z,93370.00
2022-11-20T04:10:06.085Z,93379.34
2022-11-20T04:12:34.446Z,93368.81
2022-11-20T04:15:00.963Z,93374.16
2022-11-20T04:17:27.394Z,93380.72
2022-11-20T04:19:53.811Z,93375.88
2022-11-20T04:22:20.210Z,93372.75
2022-11-20T04:24:46.650Z,93397.38
2022-11-20T04:27:13.100Z,93388.66
2022-11-20T04:29:39.679Z,93373.13
2022-11-20T04:32:06.133Z,93367.72
2022-11-20T04:34:32.595Z,93360.25
2022-11-20T04:36:59.082Z,93361.63
2022-11-20T04:39:25.568Z,93381.53
2022-11-20T04:42:14.765Z,93338.06
2022-11-20T04:45:02.808Z,93376.97
2022-11-20T04:47:29.219Z,93349.81
2022-11-20T04:49:55.822Z,93344.03
2022-11-20T04:52:22.307Z,93363.34
2022-11-20T04:54:48.725Z,93359.47
2022-11-20T04:57:15.412Z,93338.13
2022-11-20T04:59:42.071Z,93347.16
2022-11-20T05:02:08.925Z,93360.16
2022-11-20T05:04:35.355Z,93359.13
2022-11-20T05:07:01.825Z,93350.69
2022-11-20T05:09:28.371Z,93306.47
2022-11-20T05:11:54.820Z,93373.13
2022-11-20T05:14:21.220Z,93359.56
2022-11-20T05:16:47.700Z,93384.38
2022-11-20T05:19:14.108Z,93380.59
2022-11-20T05:21:40.558Z,93374.63
2022-11-20T05:24:07.926Z,93368.69
2022-11-20T05:26:34.441Z,93383.59
2022-11-20T05:29:00.832Z,93379.03
2022-11-20T05:31:28.428Z,93380.00
2022-11-20T05:33:57.981Z,93378.41
2022-11-20T05:36:24.822Z,93392.44
2022-11-20T05:38:52.913Z,93388.31
2022-11-20T05:41:21.583Z,93396.53
2022-11-20T05:43:49.486Z,93395.41
2022-11-20T05:46:24.743Z,93393.81
2022-11-20T05:48:54.527Z,93372.47
2022-11-20T05:51:21.104Z,93400.50
2022-11-20T05:53:48.744Z,93372.53
2022-11-20T05:56:20.821Z,93393.16
2022-11-20T05:58:47.962Z,93360.94
2022-11-20T06:01:26.276Z,93396.34
2022-11-20T06:03:54.400Z,93400.25
2022-11-20T06:06:21.405Z,93385.91
2022-11-20T06:08:48.346Z,93374.84
2022-11-20T06:11:15.677Z,93400.84
2022-11-20T06:13:43.325Z,93389.34
2022-11-20T06:16:11.193Z,93415.66
2022-11-20T06:18:38.435Z,93421.88
2022-11-20T06:21:13.410Z,93426.50
2022-11-20T06:23:40.244Z,93399.34
2022-11-20T06:26:53.310Z,93409.56
2022-11-20T06:29:19.980Z,93389.03
2022-11-20T06:31:46.637Z,93401.63
2022-11-20T06:34:13.138Z,93393.38
2022-11-20T06:36:39.568Z,93405.28
2022-11-20T06:39:05.993Z,93395.94
2022-11-20T06:41:32.523Z,93395.28
2022-11-20T06:44:07.831Z,93408.78
2022-11-20T06:46:39.600Z,93416.31
2022-11-20T06:49:06.821Z,93417.56
2022-11-20T06:51:33.406Z,93419.16
2022-11-20T06:54:01.944Z,93417.28
2022-11-20T06:56:28.965Z,93423.88
2022-11-20T06:58:55.473Z,93399.94
2022-11-20T07:01:21.976Z,93412.47
2022-11-20T07:03:54.247Z,93440.50
2022-11-20T07:06:21.284Z,93419.91
2022-11-20T07:08:48.034Z,93418.00
2022-11-20T07:11:14.834Z,93450.22
2022-11-20T07:13:41.263Z,93446.25
2022-11-20T07:16:09.134Z,93443.34
2022-11-20T07:18:36.449Z,93433.09
2022-11-20T07:21:04.929Z,93436.63
2022-11-20T07:23:31.674Z,93454.50
2022-11-20T07:26:05.095Z,93434.88
2022-11-20T07:28:31.911Z,93451.88
2022-11-20T07:30:58.362Z,93454.84
2022-11-20T07:33:27.988Z,93446.22
2022-11-20T07:35:54.502Z,93441.72
2022-11-20T07:38:21.063Z,93437.53
2022-11-20T07:40:54.439Z,93455.78
2022-11-20T07:43:21.896Z,93442.56
2022-11-20T07:45:49.397Z,93437.13
2022-11-20T07:48:16.934Z,93441.00
2022-11-20T07:50:49.328Z,93444.44
2022-11-20T07:53:24.410Z,93466.28
2022-11-20T07:55:53.349Z,93453.94
2022-11-20T07:58:22.124Z,93468.81
2022-11-20T08:01:08.495Z,93470.44
2022-11-20T08:03:35.715Z,93469.41
2022-11-20T08:06:06.669Z,93452.66
2022-11-20T08:08:42.373Z,93457.31
2022-11-20T08:11:28.877Z,93457.25
2022-11-20T08:14:15.056Z,93467.25
2022-11-20T08:16:43.860Z,93444.06
2022-11-20T08:19:16.158Z,93462.47
2022-11-20T08:21:42.641Z,93453.63
2022-11-20T08:24:09.659Z,93441.31
2022-11-20T08:26:37.899Z,93459.38
2022-11-20T08:29:05.543Z,93468.56
2022-11-20T08:31:32.601Z,93460.41
2022-11-20T08:34:18.768Z,93445.06
2022-11-20T08:36:45.660Z,93452.13
2022-11-20T08:39:13.715Z,93434.38
2022-11-20T08:41:40.240Z,93448.72
2022-11-20T08:44:08.746Z,93437.41
2022-11-20T08:46:37.931Z,93463.41
2022-11-20T08:49:08.649Z,93436.13
2022-11-20T08:51:35.932Z,93433.59
2022-11-20T08:54:02.686Z,93422.56
2022-11-20T08:56:31.710Z,93452.59
2022-11-20T09:01:54.643Z,93413.69
2022-11-20T09:04:21.055Z,93432.81
2022-11-20T09:06:51.761Z,93431.19
2022-11-20T09:09:19.631Z,93438.38
2022-11-20T09:11:52.401Z,93436.50
2022-11-20T09:14:25.692Z,93419.69
2022-11-20T09:16:52.177Z,93431.53
2022-11-20T09:19:47.965Z,93443.16
2022-11-20T09:22:05.084Z,93435.44
2022-11-20T09:24:31.515Z,93428.91
2022-11-20T09:27:02.797Z,93428.56
2022-11-20T09:29:29.214Z,93418.13
2022-11-20T09:31:55.612Z,93423.94
2022-11-20T09:34:22.259Z,93420.53
2022-11-20T09:36:48.647Z,93418.25
2022-11-20T09:39:34.709Z,93446.63
2022-11-20T09:42:13.627Z,93422.13
2022-11-20T09:44:57.359Z,93412.59
2022-11-20T09:47:39.869Z,93417.78
2022-11-20T09:50:25.112Z,93431.66
2022-11-20T09:53:31.347Z,93415.41
2022-11-20T09:55:58.233Z,93426.75
2022-11-20T09:58:43.726Z,93428.03
2022-11-20T10:01:16.802Z,93437.69
2022-11-20T10:04:02.632Z,93430.16
2022-11-20T10:07:17.250Z,93433.81
2022-11-20T10:09:44.760Z,93434.63
2022-11-20T10:12:34.357Z,93414.22
2022-11-20T10:15:25.365Z,93430.06
2022-11-20T10:18:19.815Z,93442.28
2022-11-20T10:21:13.187Z,93443.59
2022-11-20T10:24:18.684Z,93442.91
2022-11-20T10:27:06.260Z,93439.59
2022-11-20T10:29:39.166Z,93404.94
2022-11-20T10:32:17.380Z,93426.84
2022-11-20T10:35:20.595Z,93412.91
2022-11-20T10:37:52.002Z,93420.69
2022-11-20T10:40:37.139Z,93435.97
2022-11-20T10:43:16.033Z,93413.38
2022-11-20T10:45:51.935Z,93443.63
2022-11-20T10:48:32.863Z,93418.09
2022-11-20T10:51:17.613Z,93428.09
2022-11-20T10:54:06.002Z,93431.75
2022-11-20T10:56:54.172Z,93431.94
2022-11-20T10:59:36.793Z,93428.97
2022-11-20T11:02:32.081Z,93412.38
2022-11-20T11:04:59.609Z,93419.69
2022-11-20T11:07:36.007Z,93405.06
2022-11-20T11:10:02.398Z,93420.28
2022-11-20T11:12:30.093Z,93389.28
2022-11-20T11:14:58.849Z,93388.47
2022-11-20T11:17:28.389Z,93395.09
2022-11-20T11:20:21.615Z,93397.44
2022-11-20T11:22:49.402Z,93400.34
2022-11-20T11:25:25.292Z,93394.84
2022-11-20T11:27:52.935Z,93393.09
2022-11-20T11:30:21.201Z,93396.31
2022-11-20T11:32:47.797Z,93378.50
2022-11-20T11:35:29.112Z,93402.81
2022-11-20T11:38:20.303Z,93397.53
2022-11-20T11:40:47.915Z,93381.75
2022-11-20T11:43:45.607Z,93395.22
2022-11-20T11:46:30.172Z,93375.84
2022-11-20T11:49:14.933Z,93388.19
2022-11-20T11:52:15.008Z,93394.91
2022-11-20T11:55:09.931Z,93396.66
2022-11-20T11:57:37.796Z,93387.03
2022-11-20T12:00:16.312Z,93388.78
2022-11-20T12:02:45.710Z,93380.25
2022-11-20T12:05:40.066Z,93372.59
2022-11-20T12:08:16.029Z,93348.31
2022-11-20T12:10:50.636Z,93347.50
2022-11-20T12:13:29.098Z,93365.50
2022-11-20T12:15:57.639Z,93345.59
2022-11-20T12:18:24.383Z,93344.63
2022-11-20T12:21:24.250Z,93354.13
2022-11-20T12:24:12.397Z,93358.19
2022-11-20T12:27:19.439Z,93360.78
2022-11-20T12:30:27.560Z,93365.31
2022-11-20T12:32:53.966Z,93351.38
2022-11-20T12:35:51.374Z,93368.72
2022-11-20T12:38:32.728Z,93354.19
2022-11-20T12:45:26.561Z,93353.75
2022-11-20T12:48:33.946Z,93360.63
2022-11-20T12:51:45.331Z,93357.03
2022-11-20T12:54:30.635Z,93352.50
2022-11-20T12:57:52.863Z,93357.59
2022-11-20T13:00:22.347Z,93354.56
2022-11-20T13:03:25.764Z,93357.28
2022-11-20T13:06:04.492Z,93370.03
2022-11-20T13:08:35.407Z,93344.00
2022-11-20T13:11:20.206Z,93337.94
2022-11-20T13:14:33.070Z,93360.44
2022-11-20T13:17:10.977Z,93326.72
2022-11-20T13:19:40.200Z,93330.22
2022-11-20T13:22:09.242Z,93335.88
2022-11-20T13:24:35.732Z,93298.44
2022-11-20T13:27:14.303Z,93347.31
2022-11-20T13:29:45.205Z,93318.47
2022-11-20T13:32:22.422Z,93315.00
2022-11-20T13:34:59.854Z,93333.78
2022-11-20T13:37:33.697Z,93315.34
2022-11-20T13:40:09.365Z,93324.97
2022-11-20T13:43:15.679Z,93326.13
2022-11-20T13:46:05.937Z,93299.16
2022-11-20T13:48:46.206Z,93330.06
2022-11-20T13:51:46.441Z,93326.59
2022-11-20T13:54:24.600Z,93303.56
2022-11-20T13:57:31.878Z,93314.34
2022-11-20T14:00:22.477Z,93332.41
2022-11-20T14:03:13.294Z,93322.53
2022-11-20T14:05:49.887Z,93291.38
2022-11-20T14:08:28.078Z,93290.66
2022-11-20T14:11:16.250Z,93299.94
2022-11-20T14:14:04.481Z,93303.31
2022-11-20T14:16:38.379Z,93297.75
2022-11-20T14:19:29.854Z,93308.13
2022-11-20T14:22:19.810Z,93310.09
2022-11-20T14:24:47.087Z,93299.75
2022-11-20T14:27:21.975Z,93281.56
2022-11-20T14:29:51.384Z,93280.09
2022-11-20T14:32:30.565Z,93296.09
2022-11-20T14:35:20.048Z,93277.34
2022-11-20T14:37:52.650Z,93294.59
2022-11-20T14:40:29.573Z,93297.59
2022-11-20T14:42:59.567Z,93286.50
2022-11-20T14:45:36.018Z,93299.13
2022-11-20T14:48:04.727Z,93290.53
2022-11-20T14:50:48.459Z,93296.47
2022-11-20T14:53:25.810Z,93284.94
2022-11-20T14:56:01.799Z,93291.63
2022-11-20T14:58:34.288Z,93302.72
2022-11-20T15:01:08.591Z,93308.59
2022-11-20T15:03:40.441Z,93302.72
2022-11-20T15:06:14.183Z,93292.09
2022-11-20T15:08:54.244Z,93280.59
2022-11-20T15:11:30.465Z,93298.28
2022-11-20T15:14:07.719Z,93296.34
2022-11-20T15:16:35.312Z,93276.28
2022-11-20T15:19:04.941Z,93287.59
2022-11-20T15:21:34.699Z,93260.31
2022-11-20T15:24:10.036Z,93280.50
2022-11-20T15:26:38.822Z,93248.16
2022-11-20T15:29:05.322Z,93255.41
2022-11-20T15:31:42.452Z,93253.16
2022-11-20T15:34:14.098Z,93284.72
2022-11-20T15:36:41.065Z,93273.44
2022-11-20T15:39:08.403Z,93262.34
2022-11-20T15:41:37.899Z,93274.94
2022-11-20T15:44:05.463Z,93250.56
2022-11-20T15:46:40.867Z,93262.47
2022-11-20T15:49:12.969Z,93286.72
2022-11-20T15:51:42.295Z,93266.94
2022-11-20T15:54:21.020Z,93273.16
2022-11-20T15:56:55.795Z,93261.66
2022-11-20T15:59:22.217Z,93249.97
2022-11-20T16:01:48.659Z,93239.03
2022-11-20T16:04:17.504Z,93261.94
2022-11-20T16:06:54.881Z,93231.38
2022-11-20T16:09:21.368Z,93255.22
2022-11-20T16:12:00.397Z,93273.66
2022-11-20T16:14:46.254Z,93271.13
2022-11-20T16:17:36.744Z,93251.47
2022-11-20T16:20:05.569Z,93247.06
2022-11-20T16:22:31.978Z,93253.75
2022-11-20T16:24:58.682Z,93252.13
2022-11-20T16:27:25.073Z,93254.72
2022-11-20T16:29:52.497Z,93235.09
2022-11-20T16:32:19.965Z,93241.22
2022-11-20T16:34:50.538Z,93242.22
2022-11-20T16:37:20.096Z,93224.66
2022-11-20T16:39:49.521Z,93199.72
2022-11-20T16:42:19.113Z,93232.88
2022-11-20T16:44:46.827Z,93218.50
2022-11-20T16:47:13.233Z,93215.16
2022-11-20T16:49:43.308Z,93224.34
2022-11-20T16:52:09.775Z,93199.38
2022-11-20T16:54:36.210Z,93205.19
2022-11-20T16:57:02.627Z,93219.31
2022-11-20T16:59:29.041Z,93206.13
2022-11-20T17:01:56.972Z,93217.72
2022-11-20T17:04:23.682Z,93214.50
2022-11-20T17:06:56.345Z,93202.91
2022-11-20T17:09:22.782Z,93219.69
2022-11-20T17:11:49.688Z,93208.91
2022-11-20T17:14:16.224Z,93190.94
2022-11-20T17:16:43.097Z,93183.13
2022-11-20T17:19:11.512Z,93192.00
2022-11-20T17:21:39.677Z,93213.34
2022-11-20T17:24:11.946Z,93191.56
2022-11-20T17:26:41.009Z,93216.88
2022-11-20T17:29:10.793Z,93213.38
2022-11-20T17:31:38.654Z,93197.91
2022-11-20T17:34:11.011Z,93190.19
2022-11-20T17:36:44.855Z,93211.31
2022-11-20T17:39:14.415Z,93200.31
2022-11-20T17:42:06.296Z,93196.41
2022-11-20T17:44:33.529Z,93184.50
2022-11-20T17:46:59.928Z,93184.16
2022-11-20T17:49:26.318Z,93189.53
2022-11-20T17:51:52.840Z,93167.03
2022-11-20T17:54:19.242Z,93201.38
2022-11-20T17:57:07.398Z,93173.38
2022-11-20T17:59:33.869Z,93163.38
2022-11-20T18:02:03.692Z,93181.06
2022-11-20T18:04:30.480Z,93175.91
2022-11-20T18:06:57.081Z,93171.28
2022-11-20T18:09:23.558Z,93168.69
2022-11-20T18:11:50.018Z,93163.94
2022-11-20T18:14:28.862Z,93159.34
2022-11-20T18:16:57.561Z,93163.56
2022-11-20T18:19:31.964Z,93153.81
2022-11-20T18:22:01.296Z,93156.25
2022-11-20T18:24:27.787Z,93131.22
2022-11-20T18:26:54.187Z,93141.97
2022-11-20T18:29:33.560Z,93163.13
2022-11-20T18:32:00.692Z,93122.63
2022-11-20T18:34:27.555Z,93157.34
2022-11-20T18:36:56.183Z,93130.09
2022-11-20T18:39:23.579Z,93130.78
2022-11-20T18:42:09.239Z,93128.81
2022-11-20T18:44:51.310Z,93158.19
2022-11-20T18:47:39.989Z,93149.94
2022-11-20T18:50:08.520Z,93140.03
2022-11-20T18:52:41.962Z,93113.59
2022-11-20T18:55:09.459Z,93103.63
2022-11-20T18:57:36.023Z,93116.38
2022-11-20T19:00:08.971Z,93107.53
2022-11-20T19:02:41.644Z,93126.25
2022-11-20T19:05:10.245Z,93123.53
2022-11-20T19:07:38.941Z,93133.22
2022-11-20T19:10:06.266Z,93109.13
2022-11-20T19:12:32.703Z,93112.00
2022-11-20T19:15:01.199Z,93106.13
2022-11-20T19:17:27.729Z,93109.66
2022-11-20T19:19:54.973Z,93110.50
2022-11-20T19:22:23.531Z,93102.41
2022-11-20T19:24:50.050Z,93104.19
2022-11-20T19:27:16.656Z,93115.75
2022-11-20T19:29:44.195Z,93098.63
2022-11-20T19:32:16.777Z,93118.00
2022-11-20T19:34:56.396Z,93107.47
2022-11-20T19:37:35.429Z,93117.91
2022-11-20T19:40:11.085Z,93113.53
2022-11-20T19:42:39.564Z,93113.94
2022-11-20T19:45:06.754Z,93109.81
2022-11-20T19:48:01.025Z,93132.75
2022-11-20T19:50:24.748Z,93098.44
2022-11-20T19:52:55.811Z,93109.06
2022-11-20T19:55:29.158Z,93115.69
2022-11-20T19:57:56.292Z,93130.41
2022-11-20T20:00:37.922Z,93111.81
2022-11-20T20:03:05.390Z,93125.66
2022-11-20T20:05:34.308Z,93121.59
2022-11-20T20:08:15.232Z,93098.66
2022-11-20T20:10:46.418Z,93112.22
2022-11-20T20:13:13.879Z,93127.38
2022-11-20T20:15:49.669Z,93097.22
2022-11-20T20:18:16.184Z,93111.22
2022-11-20T20:20:50.927Z,93117.72
2022-11-20T20:23:17.425Z,93103.66
2022-11-20T20:25:47.736Z,93111.50
2022-11-20T20:28:21.343Z,93110.84
2022-11-20T20:30:47.900Z,93107.91
2022-11-20T20:33:15.357Z,93100.25
2022-11-20T20:35:54.999Z,93129.25
2022-11-20T20:38:22.304Z,93116.13
2022-11-20T20:41:22.000Z,93136.47
2022-11-20T20:44:07.160Z,93126.66
2022-11-20T20:46:33.677Z,93136.19
2022-11-20T20:49:01.224Z,93148.31
2022-11-20T20:51:27.850Z,93130.47
2022-11-20T20:53:54.346Z,93154.28
2022-11-20T20:56:21.950Z,93167.13
2022-11-20T20:58:48.400Z,93147.22
2022-11-20T21:01:18.212Z,93165.69
2022-11-20T21:03:45.377Z,93184.69
2022-11-20T21:06:12.535Z,93191.66
2022-11-20T21:08:41.096Z,93190.78
2022-11-20T21:11:16.218Z,93200.03
2022-11-20T21:13:44.400Z,93202.81
2022-11-20T21:16:13.662Z,93196.09
2022-11-20T21:18:42.106Z,93169.03
2022-11-20T21:21:30.397Z,93194.34
2022-11-20T21:23:56.909Z,93195.50
2022-11-20T21:26:25.531Z,93181.97
2022-11-20T21:28:58.261Z,93182.41
2022-11-20T21:31:26.882Z,93181.75
2022-11-20T21:33:55.087Z,93194.13
2022-11-20T21:36:24.443Z,93209.97
2022-11-20T21:38:52.743Z,93181.63
2022-11-20T21:41:19.162Z,93173.22
2022-11-20T21:43:46.969Z,93169.22
2022-11-20T21:46:17.367Z,93198.78
2022-11-20T21:48:45.766Z,93196.19
2022-11-20T21:51:21.026Z,93170.97
2022-11-20T21:53:48.825Z,93175.69
2022-11-20T21:56:20.297Z,93172.38
2022-11-20T21:58:48.360Z,93182.03
2022-11-20T22:01:17.833Z,93194.97
2022-11-20T22:03:49.458Z,93179.50
2022-11-20T22:06:19.391Z,93200.13
2022-11-20T22:08:45.866Z,93170.44
2022-11-20T22:11:14.550Z,93175.84
2022-11-20T22:14:00.261Z,93178.28
2022-11-20T22:16:32.502Z,93207.31
2022-11-20T22:18:58.965Z,93202.09
2022-11-20T22:21:28.058Z,93226.31
2022-11-20T22:23:56.045Z,93215.06
2022-11-20T22:26:25.142Z,93204.47
2022-11-20T22:28:54.216Z,93203.50
2022-11-20T22:31:22.506Z,93201.22
2022-11-20T22:33:49.185Z,93193.81
2022-11-20T22:36:37.202Z,93191.78
2022-11-20T22:39:05.866Z,93227.34
2022-11-20T22:41:32.833Z,93209.59
2022-11-20T22:44:01.810Z,93200.88
2022-11-20T22:46:32.193Z,93219.56
2022-11-20T22:49:01.323Z,93230.81
2022-11-20T22:51:32.960Z,93233.09
2022-11-20T22:53:59.796Z,93190.22
2022-11-20T22:56:29.849Z,93234.19
2022-11-20T22:58:56.416Z,93229.25
2022-11-20T23:01:24.130Z,93201.53
2022-11-20T23:04:00.819Z,93231.47
2022-11-20T23:06:27.701Z,93241.31
2022-11-20T23:08:55.007Z,93211.56
2022-11-20T23:11:28.382Z,93207.03
2022-11-20T23:13:57.975Z,93193.50
2022-11-20T23:16:26.159Z,93227.75
2022-11-20T23:18:57.657Z,93208.91
2022-11-20T23:21:24.697Z,93230.81
2022-11-20T23:23:53.589Z,93229.22
2022-11-20T23:26:22.096Z,93225.66
2022-11-20T23:28:48.746Z,93226.41
2022-11-20T23:31:16.234Z,93243.63
2022-11-20T23:33:45.335Z,93253.47
2022-11-20T23:36:12.663Z,93253.19
2022-11-20T23:38:39.678Z,93212.31
2022-11-20T23:41:06.344Z,93235.50
2022-11-20T23:43:33.203Z,93238.22
2022-11-20T23:46:01.507Z,93243.16
2022-11-20T23:48:30.740Z,93243.50
2022-11-20T23:50:57.570Z,93245.41
2022-11-20T23:53:24.896Z,93237.63
2022-11-20T23:55:59.603Z,93214.09
2022-11-20T23:58:31.320Z,93215.81
